Hlavní strana
METAR-TAF:

METAR-TAF

Letiště :

Petropavl, Kazachstán

zeměpisná šířka: 54-46-28N, zeměpisná délka: 069-11-06E, výška: 139 m

Aktuální stav počasí

Zpráva byla vytvořena před 27 minutami, v 08:00 UTC
Jihojihozápadní vítr 4 kt
Teplota -7°C
Vlhkost vzduchu 93%
Tlak 1019 hPa
Viditelnost 10 km a více
Žádná oblačnost pod 1500 m, nevyskytují se cumulonimby.

METAR: UACP 110800Z 21002MPS CAVOK M07/M08 Q1019 R23/1/0060 NOSIG RMK QFE752/1003

Čas: 14:27 (08:27 UTC)

Předpověď počasí

Zpráva byla vytvořena před 3 hodinami a 25 minutami, v 05:02 UTC
Předpověď platná od 11 v 06 UTC do 11 v 15 UTC
Jihojihozápadní vítr 8 kt
Viditelnost 10 km a více
Polojasno ve výšce 2000 ft
Dočasný
od 11 v 12 UTC do 11 v 15 UTC
Viditelnost: 3100 m
Oblačno až skoro zataženo ve výšce 1100 ft
kouřmo

TAF: UACP 110502Z 1106/1115 20004MPS 9999 SCT020 TEMPO 1112/1115 3100 BR BKN011

Stav a předpovědi počasí z více než 4 000 letišť (zprávy METAR a TAF).

Červené a žluté tečky na mapě představují dostupné meteorologické stanice.

Když kurzor umístíte na tečku, zobrazí se název stanice.

Pak kliknutím zobrazíte stav a předpověď počasí.

Chcete-li změnit mapu, kliknutím na zelené tlačítko se znaménkem +mapu přiblížíte, kliknutím na zelené tlačítko se znaménkem – mapu oddálíte a kliknutím na zelené šipky přejdete na sousední mapy.


METAR-TAF: